VLG4537 LEAL-LEGR
Flight info
| Callsign | VLG4537 |
|---|---|
| Flight time | 0h 40m |
| Altitude | 29000 |
| Route | RESTU N851 UNTOS DCT VIBAS |
| Aircraft | A320/M-SDE3FGHIRWY/LB1 |
Departure
| Time | 2026-05-06 17:38 |
|---|---|
| Airport | Alicante-Elche Miguel Hernández Airport (LEAL) |
Arrival
| Time | 2026-05-06 18:18 |
|---|---|
| Airport | F.G.L. Airport Granada-Jaén Airport (LEGR) |
| Time | Latitude | Longitude | Altitude | Speed | Heading |
|---|---|---|---|---|---|
| 2026-05-06 17:13 | 38.28524 | -0.55279 | 93 ft | 0 kts | 9° |
| 2026-05-06 17:29 | 38.28510 | -0.55282 | 93 ft | 3 kts | 12° |
| 2026-05-06 17:29 | 38.28491 | -0.55288 | 92 ft | 3 kts | 21° |
| 2026-05-06 17:29 | 38.28473 | -0.55299 | 94 ft | 3 kts | 37° |
| 2026-05-06 17:30 | 38.28460 | -0.55316 | 93 ft | 3 kts | 77° |
| 2026-05-06 17:30 | 38.28458 | -0.55329 | 92 ft | 1 kts | 99° |
| 2026-05-06 17:30 | 38.28459 | -0.55332 | 92 ft | 0 kts | 99° |
| 2026-05-06 17:32 | 38.28455 | -0.55308 | 94 ft | 6 kts | 100° |
| 2026-05-06 17:32 | 38.28445 | -0.55228 | 92 ft | 12 kts | 99° |
| 2026-05-06 17:32 | 38.28382 | -0.55176 | 88 ft | 17 kts | 214° |
| 2026-05-06 17:33 | 38.28303 | -0.55139 | 79 ft | 17 kts | 103° |
| 2026-05-06 17:33 | 38.28281 | -0.54989 | 66 ft | 17 kts | 101° |
| 2026-05-06 17:33 | 38.28261 | -0.54841 | 66 ft | 15 kts | 101° |
| 2026-05-06 17:33 | 38.28241 | -0.54693 | 59 ft | 20 kts | 101° |
| 2026-05-06 17:34 | 38.28212 | -0.54501 | 56 ft | 23 kts | 99° |
| 2026-05-06 17:34 | 38.28186 | -0.54316 | 51 ft | 20 kts | 101° |
| 2026-05-06 17:34 | 38.28137 | -0.54191 | 49 ft | 14 kts | 165° |
| 2026-05-06 17:34 | 38.28067 | -0.54196 | 51 ft | 7 kts | 188° |
| 2026-05-06 17:35 | 38.28009 | -0.54232 | 54 ft | 11 kts | 233° |
| 2026-05-06 17:35 | 38.28003 | -0.54291 | 56 ft | 0 kts | 281° |
| 2026-05-06 17:37 | 38.28007 | -0.54318 | 56 ft | 15 kts | 281° |
| 2026-05-06 17:37 | 38.28083 | -0.54868 | 61 ft | 111 kts | 280° |
| 2026-05-06 17:37 | 38.28264 | -0.56163 | 116 ft | 182 kts | 278° |
| 2026-05-06 17:37 | 38.28499 | -0.57920 | 531 ft | 215 kts | 280° |
| 2026-05-06 17:38 | 38.28760 | -0.59813 | 1651 ft | 217 kts | 278° |
| 2026-05-06 17:38 | 38.28929 | -0.61767 | 2635 ft | 231 kts | 272° |
| 2026-05-06 17:38 | 38.28981 | -0.63929 | 3400 ft | 257 kts | 270° |
| 2026-05-06 17:38 | 38.28983 | -0.66303 | 4358 ft | 275 kts | 269° |
| 2026-05-06 17:39 | 38.28979 | -0.68752 | 5622 ft | 277 kts | 270° |
| 2026-05-06 17:39 | 38.28979 | -0.71192 | 6807 ft | 275 kts | 270° |
| 2026-05-06 17:39 | 38.28986 | -0.73620 | 8032 ft | 273 kts | 271° |
| 2026-05-06 17:39 | 38.29000 | -0.76031 | 9315 ft | 273 kts | 271° |
| 2026-05-06 17:40 | 38.29021 | -0.78435 | 10414 ft | 280 kts | 271° |
| 2026-05-06 17:40 | 38.29045 | -0.81023 | 10968 ft | 305 kts | 271° |
| 2026-05-06 17:40 | 38.29073 | -0.83814 | 11695 ft | 322 kts | 271° |
| 2026-05-06 17:40 | 38.29099 | -0.86695 | 12709 ft | 329 kts | 270° |
| 2026-05-06 17:41 | 38.29125 | -0.89636 | 13799 ft | 335 kts | 270° |
| 2026-05-06 17:41 | 38.29151 | -0.92625 | 14787 ft | 340 kts | 270° |
| 2026-05-06 17:41 | 38.28989 | -0.95648 | 15766 ft | 345 kts | 259° |
| 2026-05-06 17:41 | 38.28297 | -0.98582 | 16777 ft | 350 kts | 247° |
| 2026-05-06 17:42 | 38.27086 | -1.01297 | 17795 ft | 355 kts | 234° |
| 2026-05-06 17:42 | 38.25497 | -1.03738 | 18735 ft | 360 kts | 231° |
| 2026-05-06 17:42 | 38.23869 | -1.06174 | 19676 ft | 363 kts | 231° |
| 2026-05-06 17:42 | 38.22231 | -1.08634 | 20652 ft | 365 kts | 231° |
| 2026-05-06 17:43 | 38.20585 | -1.11111 | 21632 ft | 367 kts | 231° |
| 2026-05-06 17:43 | 38.18935 | -1.13597 | 22597 ft | 370 kts | 231° |
| 2026-05-06 17:43 | 38.17271 | -1.16108 | 23518 ft | 372 kts | 231° |
| 2026-05-06 17:43 | 38.15601 | -1.18627 | 24265 ft | 375 kts | 231° |
| 2026-05-06 17:44 | 38.13915 | -1.21161 | 24987 ft | 376 kts | 231° |
| 2026-05-06 17:44 | 38.12223 | -1.23704 | 25642 ft | 377 kts | 231° |
| 2026-05-06 17:44 | 38.10528 | -1.26253 | 26238 ft | 379 kts | 231° |
| 2026-05-06 17:44 | 38.08824 | -1.28810 | 26802 ft | 380 kts | 231° |
| 2026-05-06 17:45 | 38.07113 | -1.31376 | 27325 ft | 382 kts | 231° |
| 2026-05-06 17:45 | 38.05389 | -1.33950 | 27815 ft | 383 kts | 231° |
| 2026-05-06 17:45 | 38.03658 | -1.36532 | 28282 ft | 385 kts | 231° |
| 2026-05-06 17:45 | 38.01926 | -1.39116 | 28722 ft | 386 kts | 231° |
| 2026-05-06 17:46 | 38.00169 | -1.41736 | 28901 ft | 393 kts | 231° |
| 2026-05-06 17:46 | 37.98375 | -1.44416 | 28924 ft | 403 kts | 231° |
| 2026-05-06 17:46 | 37.94825 | -1.49698 | 28921 ft | 378 kts | 231° |
| 2026-05-06 17:47 | 37.91564 | -1.54759 | 28916 ft | 370 kts | 238° |
| 2026-05-06 17:47 | 37.89566 | -1.60743 | 28930 ft | 371 kts | 251° |
| 2026-05-06 17:48 | 37.88073 | -1.67010 | 28929 ft | 371 kts | 251° |
| 2026-05-06 17:48 | 37.86572 | -1.73264 | 28922 ft | 371 kts | 251° |
| 2026-05-06 17:49 | 37.85070 | -1.79515 | 28929 ft | 371 kts | 251° |
| 2026-05-06 17:49 | 37.83565 | -1.85768 | 28925 ft | 371 kts | 251° |
| 2026-05-06 17:50 | 37.82054 | -1.92010 | 28935 ft | 371 kts | 251° |
| 2026-05-06 17:50 | 37.80542 | -1.98269 | 28936 ft | 372 kts | 251° |
| 2026-05-06 17:51 | 37.79032 | -2.04515 | 28939 ft | 371 kts | 251° |
| 2026-05-06 17:51 | 37.77520 | -2.10714 | 28938 ft | 371 kts | 251° |
| 2026-05-06 17:52 | 37.75997 | -2.16936 | 28932 ft | 371 kts | 251° |
| 2026-05-06 17:52 | 37.74470 | -2.23168 | 28936 ft | 371 kts | 251° |
| 2026-05-06 17:53 | 37.72942 | -2.29400 | 28932 ft | 371 kts | 251° |
| 2026-05-06 17:53 | 37.71413 | -2.35626 | 28934 ft | 371 kts | 251° |
| 2026-05-06 17:54 | 37.69887 | -2.41837 | 28918 ft | 371 kts | 251° |
| 2026-05-06 17:54 | 37.68348 | -2.48052 | 28918 ft | 370 kts | 251° |
| 2026-05-06 17:55 | 37.66812 | -2.54250 | 28921 ft | 370 kts | 251° |
| 2026-05-06 17:55 | 37.65273 | -2.60444 | 28907 ft | 370 kts | 251° |
| 2026-05-06 17:56 | 37.63737 | -2.66638 | 28898 ft | 369 kts | 251° |
| 2026-05-06 17:56 | 37.62198 | -2.72823 | 28895 ft | 369 kts | 250° |
| 2026-05-06 17:57 | 37.60652 | -2.78994 | 28887 ft | 369 kts | 250° |
| 2026-05-06 17:57 | 37.59108 | -2.85136 | 28893 ft | 369 kts | 250° |
| 2026-05-06 17:58 | 37.57558 | -2.91317 | 28885 ft | 369 kts | 250° |
| 2026-05-06 17:58 | 37.56005 | -2.97496 | 28886 ft | 369 kts | 250° |
| 2026-05-06 17:59 | 37.54443 | -3.03653 | 28885 ft | 371 kts | 250° |
| 2026-05-06 17:59 | 37.53644 | -3.06795 | 28747 ft | 380 kts | 250° |
| 2026-05-06 17:59 | 37.52836 | -3.09971 | 27873 ft | 383 kts | 250° |
| 2026-05-06 18:00 | 37.52024 | -3.13167 | 27201 ft | 380 kts | 250° |
| 2026-05-06 18:00 | 37.51228 | -3.16310 | 26741 ft | 373 kts | 251° |
| 2026-05-06 18:00 | 37.50444 | -3.19398 | 26280 ft | 368 kts | 250° |
| 2026-05-06 18:00 | 37.49680 | -3.22402 | 25850 ft | 363 kts | 251° |
| 2026-05-06 18:01 | 37.48915 | -3.25409 | 25408 ft | 359 kts | 251° |
| 2026-05-06 18:01 | 37.48148 | -3.28419 | 24980 ft | 355 kts | 251° |
| 2026-05-06 18:01 | 37.47401 | -3.31330 | 24574 ft | 352 kts | 251° |
| 2026-05-06 18:01 | 37.46650 | -3.34253 | 24045 ft | 352 kts | 251° |
| 2026-05-06 18:02 | 37.45883 | -3.37229 | 23104 ft | 360 kts | 251° |
| 2026-05-06 18:02 | 37.45111 | -3.40224 | 22077 ft | 358 kts | 251° |
| 2026-05-06 18:02 | 37.44348 | -3.43202 | 21087 ft | 356 kts | 251° |
| 2026-05-06 18:02 | 37.43589 | -3.46164 | 20129 ft | 354 kts | 251° |
| 2026-05-06 18:03 | 37.42836 | -3.49099 | 19216 ft | 351 kts | 251° |
| 2026-05-06 18:03 | 37.42086 | -3.52012 | 18334 ft | 348 kts | 251° |
| 2026-05-06 18:03 | 37.41337 | -3.54898 | 17368 ft | 345 kts | 251° |
| 2026-05-06 18:03 | 37.40594 | -3.57760 | 16410 ft | 342 kts | 251° |
| 2026-05-06 18:04 | 37.39860 | -3.60593 | 15497 ft | 340 kts | 251° |
| 2026-05-06 18:04 | 37.38981 | -3.63327 | 14620 ft | 335 kts | 240° |
| 2026-05-06 18:04 | 37.37695 | -3.65751 | 13794 ft | 331 kts | 233° |
| 2026-05-06 18:04 | 37.36374 | -3.68033 | 13173 ft | 321 kts | 233° |
| 2026-05-06 18:05 | 37.35070 | -3.70282 | 12690 ft | 308 kts | 233° |
| 2026-05-06 18:05 | 37.33845 | -3.72395 | 12247 ft | 299 kts | 233° |
| 2026-05-06 18:05 | 37.32704 | -3.74585 | 11796 ft | 301 kts | 241° |
| 2026-05-06 18:05 | 37.31728 | -3.76962 | 11330 ft | 303 kts | 241° |
| 2026-05-06 18:06 | 37.30769 | -3.79292 | 10893 ft | 305 kts | 241° |
| 2026-05-06 18:06 | 37.29789 | -3.81659 | 10446 ft | 306 kts | 241° |
| 2026-05-06 18:06 | 37.28809 | -3.84025 | 10148 ft | 302 kts | 240° |
| 2026-05-06 18:06 | 37.27851 | -3.86339 | 9927 ft | 295 kts | 240° |
| 2026-05-06 18:07 | 37.26912 | -3.88600 | 9766 ft | 291 kts | 241° |
| 2026-05-06 18:07 | 37.25975 | -3.90855 | 9585 ft | 292 kts | 241° |
| 2026-05-06 18:07 | 37.25022 | -3.93147 | 9029 ft | 298 kts | 241° |
| 2026-05-06 18:07 | 37.24065 | -3.95447 | 8619 ft | 297 kts | 242° |
| 2026-05-06 18:08 | 37.23087 | -3.97793 | 7795 ft | 310 kts | 242° |
| 2026-05-06 18:08 | 37.22415 | -3.99403 | 7259 ft | 318 kts | 242° |
| 2026-05-06 18:08 | 37.21388 | -4.01866 | 6834 ft | 315 kts | 242° |
| 2026-05-06 18:08 | 37.20392 | -4.04254 | 6731 ft | 301 kts | 243° |
| 2026-05-06 18:09 | 37.19459 | -4.06492 | 6667 ft | 278 kts | 243° |
| 2026-05-06 18:09 | 37.18598 | -4.08556 | 6562 ft | 256 kts | 243° |
| 2026-05-06 18:09 | 37.17805 | -4.10459 | 6466 ft | 236 kts | 243° |
| 2026-05-06 18:09 | 37.17079 | -4.12209 | 6421 ft | 220 kts | 243° |
| 2026-05-06 18:10 | 37.16392 | -4.13873 | 6345 ft | 210 kts | 243° |
| 2026-05-06 18:10 | 37.15736 | -4.15467 | 6276 ft | 202 kts | 243° |
| 2026-05-06 18:10 | 37.15093 | -4.17027 | 6206 ft | 201 kts | 243° |
| 2026-05-06 18:10 | 37.14361 | -4.18513 | 6145 ft | 201 kts | 224° |
| 2026-05-06 18:11 | 37.13134 | -4.19293 | 6077 ft | 203 kts | 186° |
| 2026-05-06 18:11 | 37.11779 | -4.18918 | 6017 ft | 205 kts | 145° |
| 2026-05-06 18:11 | 37.10953 | -4.17506 | 5946 ft | 206 kts | 103° |
| 2026-05-06 18:11 | 37.11078 | -4.15752 | 5890 ft | 206 kts | 61° |
| 2026-05-06 18:12 | 37.11963 | -4.14373 | 5818 ft | 207 kts | 48° |
| 2026-05-06 18:12 | 37.12808 | -4.12887 | 5782 ft | 203 kts | 58° |
| 2026-05-06 18:12 | 37.13484 | -4.11426 | 5704 ft | 191 kts | 60° |
| 2026-05-06 18:12 | 37.14113 | -4.10024 | 5629 ft | 179 kts | 60° |
| 2026-05-06 18:13 | 37.14763 | -4.08597 | 5588 ft | 211 kts | 59° |
| 2026-05-06 18:13 | 37.15573 | -4.06861 | 5607 ft | 235 kts | 59° |
| 2026-05-06 18:13 | 37.16379 | -4.05158 | 5475 ft | 222 kts | 58° |
| 2026-05-06 18:13 | 37.17153 | -4.03549 | 5370 ft | 208 kts | 58° |
| 2026-05-06 18:14 | 37.17881 | -4.02051 | 5297 ft | 194 kts | 58° |
| 2026-05-06 18:14 | 37.18466 | -4.00595 | 5233 ft | 181 kts | 71° |
| 2026-05-06 18:14 | 37.18661 | -3.99063 | 4982 ft | 179 kts | 88° |
| 2026-05-06 18:14 | 37.18697 | -3.97505 | 4710 ft | 178 kts | 90° |
| 2026-05-06 18:15 | 37.18716 | -3.95953 | 4463 ft | 178 kts | 90° |
| 2026-05-06 18:15 | 37.18732 | -3.94399 | 4219 ft | 178 kts | 90° |
| 2026-05-06 18:15 | 37.18747 | -3.92842 | 3980 ft | 179 kts | 90° |
| 2026-05-06 18:15 | 37.18761 | -3.91282 | 3741 ft | 179 kts | 90° |
| 2026-05-06 18:16 | 37.18774 | -3.89742 | 3532 ft | 177 kts | 90° |
| 2026-05-06 18:16 | 37.18788 | -3.88218 | 3282 ft | 176 kts | 90° |
| 2026-05-06 18:16 | 37.18801 | -3.86680 | 3043 ft | 177 kts | 89° |
| 2026-05-06 18:16 | 37.18814 | -3.85140 | 2799 ft | 177 kts | 88° |
| 2026-05-06 18:17 | 37.18827 | -3.83580 | 2562 ft | 179 kts | 87° |
| 2026-05-06 18:17 | 37.18841 | -3.82025 | 2321 ft | 179 kts | 88° |
| 2026-05-06 18:17 | 37.18861 | -3.80478 | 2118 ft | 176 kts | 89° |
| 2026-05-06 18:17 | 37.18865 | -3.79012 | 1889 ft | 156 kts | 89° |
| 2026-05-06 18:18 | 37.18876 | -3.77888 | 1864 ft | 89 kts | 90° |
| 2026-05-06 18:18 | 37.18878 | -3.77396 | 1865 ft | 45 kts | 89° |
| 2026-05-06 18:18 | 37.18840 | -3.77103 | 1867 ft | 25 kts | 116° |
| 2026-05-06 18:18 | 37.18785 | -3.76970 | 1861 ft | 12 kts | 124° |
| 2026-05-06 18:19 | 37.18720 | -3.76981 | 1866 ft | 13 kts | 242° |
| 2026-05-06 18:19 | 37.18712 | -3.77114 | 1866 ft | 19 kts | 270° |
| 2026-05-06 18:19 | 37.18712 | -3.77244 | 1867 ft | 7 kts | 269° |
| 2026-05-06 18:19 | 37.18712 | -3.77288 | 1868 ft | 2 kts | 269° |
| 2026-05-06 18:20 | 37.18711 | -3.77310 | 1868 ft | 3 kts | 269° |
| 2026-05-06 18:20 | 37.18711 | -3.77318 | 1868 ft | 2 kts | 269° |
| 2026-05-06 18:20 | 37.18710 | -3.77389 | 1869 ft | 11 kts | 269° |
| 2026-05-06 18:20 | 37.18709 | -3.77463 | 1868 ft | 6 kts | 269° |
| 2026-05-06 18:21 | 37.18709 | -3.77534 | 1866 ft | 10 kts | 269° |
| 2026-05-06 18:21 | 37.18673 | -3.77614 | 1867 ft | 13 kts | 198° |
| 2026-05-06 18:21 | 37.18594 | -3.77617 | 1870 ft | 9 kts | 180° |
| 2026-05-06 18:21 | 37.18569 | -3.77638 | 1868 ft | 5 kts | 238° |
| 2026-05-06 18:22 | 37.18567 | -3.77666 | 1871 ft | 4 kts | 271° |
| 2026-05-06 18:22 | 37.18567 | -3.77683 | 1871 ft | 0 kts | 270° |